createdAt,value
2018-09-23T00:00:29.424Z,2.30
2018-09-23T00:02:57.364Z,2.73
2018-09-23T00:05:25.390Z,2.07
2018-09-23T00:07:53.542Z,2.60
2018-09-23T00:10:21.910Z,2.50
2018-09-23T00:12:50.078Z,2.70
2018-09-23T00:15:18.258Z,1.83
2018-09-23T00:17:46.675Z,2.30
2018-09-23T00:20:14.991Z,2.53
2018-09-23T00:22:43.279Z,3.40
2018-09-23T00:25:11.482Z,2.67
2018-09-23T00:27:39.669Z,2.40
2018-09-23T00:30:07.997Z,2.90
2018-09-23T00:32:35.973Z,3.53
2018-09-23T00:35:03.999Z,2.63
2018-09-23T00:37:31.921Z,3.03
2018-09-23T00:39:59.879Z,3.90
2018-09-23T00:42:28.009Z,2.70
2018-09-23T00:44:55.945Z,3.70
2018-09-23T00:47:24.437Z,3.83
2018-09-23T00:49:53.156Z,4.10
2018-09-23T00:52:21.588Z,3.83
2018-09-23T00:54:49.814Z,4.07
2018-09-23T00:57:18.277Z,3.70
2018-09-23T00:59:46.667Z,4.37
2018-09-23T01:02:15.106Z,4.20
2018-09-23T01:04:44.408Z,4.70
2018-09-23T01:07:12.621Z,4.50
2018-09-23T01:09:40.932Z,4.70
2018-09-23T01:12:09.280Z,6.17
2018-09-23T01:14:37.753Z,4.60
2018-09-23T01:17:05.934Z,3.53
2018-09-23T01:19:33.978Z,4.90
2018-09-23T01:22:02.011Z,5.13
2018-09-23T01:24:30.049Z,5.60
2018-09-23T01:26:58.236Z,5.50
2018-09-23T01:29:26.294Z,5.97
2018-09-23T01:31:54.999Z,6.43
2018-09-23T01:34:23.324Z,6.47
2018-09-23T01:36:51.697Z,6.17
2018-09-23T01:39:19.941Z,7.00
2018-09-23T01:41:48.214Z,6.10
2018-09-23T01:44:16.748Z,7.17
2018-09-23T01:46:45.502Z,8.00
2018-09-23T01:49:13.946Z,7.53
2018-09-23T01:51:43.320Z,8.90
2018-09-23T01:54:11.810Z,10.20
2018-09-23T01:56:39.895Z,8.90
2018-09-23T01:59:08.075Z,7.60
2018-09-23T02:01:36.251Z,9.30
2018-09-23T02:04:04.323Z,9.10
2018-09-23T02:06:32.352Z,8.93
2018-09-23T02:09:00.470Z,8.97
2018-09-23T02:11:28.491Z,7.90
2018-09-23T02:13:56.524Z,9.30
2018-09-23T02:16:24.727Z,6.50
2018-09-23T02:18:53.271Z,8.90
2018-09-23T02:21:21.697Z,7.30
2018-09-23T02:23:50.077Z,8.10
2018-09-23T02:26:18.556Z,7.90
2018-09-23T02:28:47.280Z,6.70
2018-09-23T02:31:15.648Z,6.33
2018-09-23T02:33:44.113Z,6.23
2018-09-23T02:36:12.413Z,6.33
2018-09-23T02:38:41.026Z,7.00
2018-09-23T02:41:09.070Z,6.17
2018-09-23T02:43:37.429Z,5.73
2018-09-23T02:46:05.607Z,6.03
2018-09-23T02:48:33.597Z,6.10
2018-09-23T02:51:01.707Z,6.43
2018-09-23T02:53:29.714Z,4.40
2018-09-23T02:55:58.309Z,5.90
2018-09-23T02:58:26.360Z,5.40
2018-09-23T03:00:54.684Z,5.50
2018-09-23T03:03:22.946Z,5.90
2018-09-23T03:05:51.508Z,5.27
2018-09-23T03:08:19.742Z,4.43
2018-09-23T03:10:48.310Z,3.63
2018-09-23T03:13:16.674Z,3.70
2018-09-23T03:15:45.141Z,3.60
2018-09-23T03:18:13.668Z,3.83
2018-09-23T03:20:41.856Z,4.27
2018-09-23T03:23:10.093Z,5.83
2018-09-23T03:25:38.316Z,4.07
2018-09-23T03:28:07.059Z,4.40
2018-09-23T03:30:36.018Z,3.10
2018-09-23T03:33:04.027Z,4.03
2018-09-23T03:35:31.974Z,4.80
2018-09-23T03:38:00.048Z,4.07
2018-09-23T03:40:27.993Z,3.77
2018-09-23T03:42:56.210Z,3.50
2018-09-23T03:45:24.314Z,4.27
2018-09-23T03:47:52.515Z,4.37
2018-09-23T03:50:20.906Z,14.83
2018-09-23T03:52:49.097Z,5.03
2018-09-23T03:55:17.690Z,4.50
2018-09-23T03:57:45.831Z,4.47
2018-09-23T04:00:14.072Z,4.60
2018-09-23T04:02:42.296Z,4.87
2018-09-23T04:05:10.330Z,5.50
2018-09-23T04:07:38.282Z,7.07
2018-09-23T04:10:06.272Z,4.67
2018-09-23T04:12:34.283Z,3.77
2018-09-23T04:15:02.335Z,4.17
2018-09-23T04:17:30.314Z,4.43
2018-09-23T04:19:58.254Z,3.67
2018-09-23T04:22:26.208Z,4.97
2018-09-23T04:24:54.222Z,10.23
2018-09-23T04:27:22.534Z,3.70
2018-09-23T04:29:50.717Z,3.40
2018-09-23T04:32:18.942Z,3.10
2018-09-23T04:34:47.336Z,3.07
2018-09-23T04:37:15.526Z,3.00
2018-09-23T04:39:43.735Z,2.53
2018-09-23T04:42:11.984Z,2.53
2018-09-23T04:44:40.357Z,2.40
2018-09-23T04:47:08.357Z,1.90
2018-09-23T04:49:36.313Z,1.97
2018-09-23T04:52:04.351Z,1.77
2018-09-23T04:54:32.324Z,2.03
2018-09-23T04:57:00.287Z,2.23
2018-09-23T04:59:28.520Z,2.13
2018-09-23T05:01:56.500Z,2.53
2018-09-23T05:04:24.637Z,2.47
2018-09-23T05:06:53.262Z,2.63
2018-09-23T05:09:21.615Z,2.80
2018-09-23T05:11:49.876Z,2.17
2018-09-23T05:14:18.016Z,2.40
2018-09-23T05:16:46.579Z,2.30
2018-09-23T05:19:14.952Z,26.73
2018-09-23T05:21:43.402Z,2.27
2018-09-23T05:24:11.528Z,1.93
2018-09-23T05:26:39.497Z,1.83
2018-09-23T05:29:07.562Z,2.20
2018-09-23T05:31:36.142Z,2.37
2018-09-23T05:34:04.110Z,15.40
2018-09-23T05:36:32.108Z,2.97
2018-09-23T05:39:00.094Z,2.13
2018-09-23T05:41:28.117Z,2.63
2018-09-23T05:43:56.221Z,2.50
2018-09-23T05:46:24.436Z,2.43
2018-09-23T05:48:59.118Z,2.90
2018-09-23T05:51:27.116Z,2.90
2018-09-23T05:53:55.187Z,2.10
2018-09-23T05:56:23.584Z,3.43
2018-09-23T05:58:51.905Z,2.70
2018-09-23T06:01:20.025Z,2.40
2018-09-23T06:03:48.283Z,2.43
2018-09-23T06:06:17.090Z,2.40
2018-09-23T06:08:45.629Z,3.10
2018-09-23T06:11:14.267Z,2.77
2018-09-23T06:13:42.396Z,3.13
2018-09-23T06:16:10.737Z,2.83
2018-09-23T06:18:38.684Z,2.40
2018-09-23T06:21:07.649Z,2.40
2018-09-23T06:23:35.837Z,2.80
2018-09-23T06:26:03.863Z,2.40
2018-09-23T06:28:32.907Z,2.40
2018-09-23T06:31:00.929Z,2.60
2018-09-23T06:33:28.876Z,1.63
2018-09-23T06:35:56.881Z,1.70
2018-09-23T06:38:25.189Z,1.70
2018-09-23T06:40:53.397Z,1.83
2018-09-23T06:43:21.728Z,1.60
2018-09-23T06:45:49.876Z,1.70
2018-09-23T06:48:18.615Z,1.50
2018-09-23T06:50:46.984Z,1.40
2018-09-23T06:53:15.448Z,1.93
2018-09-23T06:55:43.590Z,1.50
2018-09-23T06:58:12.552Z,1.70
2018-09-23T07:00:40.825Z,1.53
2018-09-23T07:03:09.132Z,2.00
2018-09-23T07:05:37.277Z,1.53
2018-09-23T07:08:06.462Z,1.30
2018-09-23T07:10:34.469Z,1.43
2018-09-23T07:13:02.661Z,1.60
2018-09-23T07:15:30.685Z,1.50
2018-09-23T07:17:59.771Z,1.53
2018-09-23T07:20:27.817Z,1.50
2018-09-23T07:22:55.889Z,1.43
2018-09-23T07:25:24.225Z,1.47
2018-09-23T07:27:52.617Z,2.00
2018-09-23T07:30:20.922Z,1.77
2018-09-23T07:32:49.108Z,2.07
2018-09-23T07:35:17.590Z,1.53
2018-09-23T07:37:46.196Z,1.30
2018-09-23T07:40:14.455Z,2.50
2018-09-23T07:42:43.696Z,1.77
2018-09-23T07:45:12.165Z,2.20
2018-09-23T07:47:40.293Z,1.50
2018-09-23T07:50:08.715Z,1.63
2018-09-23T07:52:36.874Z,2.43
2018-09-23T07:55:05.053Z,1.77
2018-09-23T07:57:33.952Z,2.60
2018-09-23T08:00:02.342Z,1.60
2018-09-23T08:02:30.594Z,2.20
2018-09-23T08:04:58.668Z,2.57
2018-09-23T08:07:26.907Z,2.10
2018-09-23T08:09:54.961Z,2.50
2018-09-23T08:12:23.196Z,2.13
2018-09-23T08:14:52.202Z,3.10
2018-09-23T08:17:20.267Z,2.13
2018-09-23T08:19:48.517Z,2.47
2018-09-23T08:22:17.005Z,1.80
2018-09-23T08:24:45.782Z,1.50
2018-09-23T08:27:14.647Z,1.20
2018-09-23T08:29:42.928Z,0.93
2018-09-23T08:32:11.493Z,0.77
2018-09-23T08:34:40.180Z,1.03
2018-09-23T08:37:08.217Z,1.27
2018-09-23T08:39:41.416Z,1.10
2018-09-23T08:42:09.560Z,1.17
2018-09-23T08:44:37.519Z,1.30
2018-09-23T08:47:05.612Z,1.07
2018-09-23T08:49:33.655Z,1.00
2018-09-23T08:52:01.681Z,1.47
2018-09-23T08:54:29.840Z,0.90
2018-09-23T08:56:57.794Z,0.90
2018-09-23T08:59:25.997Z,0.90
2018-09-23T09:01:54.285Z,0.90
2018-09-23T09:04:22.777Z,1.07
2018-09-23T09:06:51.259Z,0.90
2018-09-23T09:09:19.844Z,0.83
2018-09-23T09:11:48.118Z,0.83
2018-09-23T09:14:16.748Z,0.80
2018-09-23T09:16:46.289Z,0.90
2018-09-23T09:19:14.776Z,0.70
2018-09-23T09:21:43.269Z,0.70
2018-09-23T09:24:13.537Z,1.40
2018-09-23T09:26:42.114Z,1.43
2018-09-23T09:29:10.557Z,0.70
2018-09-23T09:31:38.740Z,0.90
2018-09-23T09:34:06.805Z,0.77
2018-09-23T09:36:34.735Z,1.00
2018-09-23T09:39:02.739Z,0.77
2018-09-23T09:41:30.760Z,1.00
2018-09-23T09:43:58.920Z,0.70
2018-09-23T09:46:27.270Z,1.13
2018-09-23T09:48:55.326Z,1.00
2018-09-23T09:51:23.585Z,0.80
2018-09-23T09:53:51.862Z,0.90
2018-09-23T09:56:20.077Z,0.70
2018-09-23T09:58:48.563Z,0.90
2018-09-23T10:01:16.912Z,0.93
2018-09-23T10:03:46.112Z,0.70
2018-09-23T10:06:15.070Z,0.63
2018-09-23T10:08:43.627Z,0.70
2018-09-23T10:11:12.261Z,0.77
2018-09-23T10:13:40.737Z,0.73
2018-09-23T10:16:09.123Z,1.10
2018-09-23T10:18:38.223Z,1.10
2018-09-23T10:21:06.310Z,0.90
2018-09-23T10:23:34.486Z,3.30
2018-09-23T10:26:02.379Z,0.70
2018-09-23T10:28:30.314Z,1.60
2018-09-23T10:30:59.053Z,0.80
2018-09-23T10:33:26.994Z,0.80
2018-09-23T10:35:54.957Z,0.80
2018-09-23T10:38:23.160Z,0.63
2018-09-23T10:40:51.407Z,0.70
2018-09-23T10:43:20.265Z,0.60
2018-09-23T10:45:48.558Z,0.80
2018-09-23T10:48:16.914Z,0.70
2018-09-23T10:50:45.943Z,1.73
2018-09-23T10:53:14.571Z,0.70
2018-09-23T10:55:43.110Z,0.73
2018-09-23T10:58:11.389Z,0.83
2018-09-23T11:00:39.614Z,0.70
2018-09-23T11:03:08.305Z,0.90
2018-09-23T11:05:36.808Z,1.00
2018-09-23T11:08:04.889Z,0.60
2018-09-23T11:10:33.070Z,0.80
2018-09-23T11:13:01.098Z,0.70
2018-09-23T11:15:29.109Z,0.70
2018-09-23T11:17:57.085Z,1.20
2018-09-23T11:20:25.108Z,0.60
2018-09-23T11:22:53.449Z,1.00
2018-09-23T11:25:21.902Z,0.70
2018-09-23T11:27:50.137Z,0.70
2018-09-23T11:30:18.720Z,0.90
2018-09-23T11:32:47.464Z,0.73
2018-09-23T11:35:16.159Z,0.80
2018-09-23T11:37:44.723Z,0.80
2018-09-23T11:40:12.827Z,0.80
2018-09-23T11:42:41.059Z,0.60
2018-09-23T11:45:10.022Z,1.00
2018-09-23T11:47:37.977Z,0.80
2018-09-23T11:50:05.992Z,0.67
2018-09-23T11:52:33.943Z,0.70
2018-09-23T11:55:02.019Z,1.00
2018-09-23T11:57:29.969Z,0.80
2018-09-23T11:59:58.353Z,0.70
2018-09-23T12:02:26.494Z,0.70
2018-09-23T12:04:54.710Z,0.80
2018-09-23T12:07:23.004Z,0.83
2018-09-23T12:09:51.538Z,0.60
2018-09-23T12:12:19.620Z,0.60
2018-09-23T12:14:48.838Z,0.90
2018-09-23T12:17:17.246Z,0.60
2018-09-23T12:19:46.182Z,0.60
2018-09-23T12:22:14.986Z,0.70
2018-09-23T12:24:43.678Z,0.90
2018-09-23T12:27:12.052Z,0.60
2018-09-23T12:29:40.450Z,0.60
2018-09-23T12:32:08.451Z,0.60
2018-09-23T12:34:36.697Z,0.60
2018-09-23T12:37:04.985Z,0.67
2018-09-23T12:39:33.273Z,0.70
2018-09-23T12:42:02.401Z,0.60
2018-09-23T12:44:30.587Z,0.57
2018-09-23T12:46:58.810Z,0.70
2018-09-23T12:49:27.840Z,0.60
2018-09-23T12:51:56.304Z,0.50
2018-09-23T12:54:24.802Z,0.60
2018-09-23T12:56:53.242Z,0.73
2018-09-23T12:59:21.527Z,0.67
2018-09-23T13:01:49.859Z,0.50
2018-09-23T13:04:18.519Z,1.10
2018-09-23T13:06:47.048Z,0.50
2018-09-23T13:09:15.631Z,0.50
2018-09-23T13:11:44.254Z,0.60
2018-09-23T13:14:12.717Z,0.70
2018-09-23T13:16:41.077Z,0.60
2018-09-23T13:19:09.496Z,0.60
2018-09-23T13:21:37.639Z,0.50
2018-09-23T13:24:05.659Z,0.93
2018-09-23T13:26:33.789Z,0.50
2018-09-23T13:29:01.912Z,0.63
2018-09-23T13:31:29.834Z,0.70
2018-09-23T13:33:57.841Z,1.67
2018-09-23T13:36:25.832Z,0.77
2018-09-23T13:38:54.583Z,0.80
2018-09-23T13:41:22.788Z,0.67
2018-09-23T13:43:50.869Z,0.50
2018-09-23T13:46:19.358Z,0.57
2018-09-23T13:48:48.029Z,0.47
2018-09-23T13:51:16.982Z,1.60
2018-09-23T13:53:45.402Z,0.80
2018-09-23T13:56:13.618Z,1.20
2018-09-23T13:58:42.259Z,1.73
2018-09-23T14:01:10.667Z,0.80
2018-09-23T14:03:38.841Z,1.03
2018-09-23T14:06:06.872Z,0.63
2018-09-23T14:08:34.830Z,0.70
2018-09-23T14:11:02.766Z,0.80
2018-09-23T14:13:30.757Z,0.97
2018-09-23T14:15:58.828Z,0.87
2018-09-23T14:18:27.071Z,0.60
2018-09-23T14:20:55.291Z,0.80
2018-09-23T14:23:23.553Z,0.60
2018-09-23T14:25:51.837Z,1.07
2018-09-23T14:28:20.265Z,0.50
2018-09-23T14:30:48.821Z,0.60
2018-09-23T14:33:17.466Z,0.80
2018-09-23T14:35:45.991Z,1.00
2018-09-23T14:38:14.892Z,0.50
2018-09-23T14:40:43.576Z,0.70
2018-09-23T14:43:12.291Z,0.90
2018-09-23T14:45:40.536Z,0.60
2018-09-23T14:48:09.076Z,0.60
2018-09-23T14:50:37.187Z,0.60
2018-09-23T14:53:05.701Z,0.70
2018-09-23T14:55:33.673Z,0.90
2018-09-23T14:58:01.813Z,0.60
2018-09-23T15:00:29.935Z,0.77
2018-09-23T15:02:58.413Z,0.50
2018-09-23T15:05:26.805Z,0.93
2018-09-23T15:07:54.907Z,1.53
2018-09-23T15:10:23.273Z,0.80
2018-09-23T15:12:51.405Z,0.63
2018-09-23T15:15:19.704Z,0.50
2018-09-23T15:17:48.003Z,1.10
2018-09-23T15:20:16.351Z,0.57
2018-09-23T15:22:44.709Z,0.70
2018-09-23T15:25:13.427Z,0.87
2018-09-23T15:27:41.705Z,0.60
2018-09-23T15:30:10.316Z,1.10
2018-09-23T15:32:38.757Z,0.60
2018-09-23T15:35:07.039Z,0.90
2018-09-23T15:37:35.078Z,0.80
2018-09-23T15:40:04.640Z,0.80
2018-09-23T15:42:33.043Z,0.80
2018-09-23T15:45:01.867Z,0.63
2018-09-23T15:47:30.128Z,1.10
2018-09-23T15:49:58.196Z,1.07
2018-09-23T15:52:26.653Z,0.90
2018-09-23T15:54:54.673Z,0.70
2018-09-23T15:57:23.035Z,0.70
2018-09-23T15:59:52.104Z,1.10
2018-09-23T16:02:20.212Z,0.73
2018-09-23T16:04:49.047Z,0.73
2018-09-23T16:07:17.408Z,0.67
2018-09-23T16:09:46.147Z,0.80
2018-09-23T16:12:14.804Z,0.70
2018-09-23T16:14:43.043Z,1.33
2018-09-23T16:17:11.691Z,0.77
2018-09-23T16:19:40.130Z,1.03
2018-09-23T16:22:08.350Z,1.80
2018-09-23T16:24:36.296Z,1.00
2018-09-23T16:27:04.471Z,0.90
2018-09-23T16:29:32.557Z,0.77
2018-09-23T16:32:00.556Z,1.23
2018-09-23T16:34:28.513Z,1.93
2018-09-23T16:36:56.589Z,0.90
2018-09-23T16:39:24.634Z,0.90
2018-09-23T16:41:52.921Z,1.10
2018-09-23T16:44:21.072Z,1.07
2018-09-23T16:46:49.392Z,1.00
2018-09-23T16:49:17.867Z,1.00
2018-09-23T16:51:46.413Z,0.50
2018-09-23T16:54:15.415Z,1.03
2018-09-23T16:56:44.164Z,0.77
2018-09-23T16:59:12.678Z,0.67
2018-09-23T17:01:40.733Z,0.93
2018-09-23T17:04:08.781Z,0.70
2018-09-23T17:06:36.745Z,0.80
2018-09-23T17:09:06.297Z,0.80
2018-09-23T17:11:34.301Z,0.60
2018-09-23T17:14:02.493Z,0.80
2018-09-23T17:16:30.517Z,0.63
2018-09-23T17:18:58.557Z,0.80
2018-09-23T17:21:26.608Z,0.60
2018-09-23T17:23:54.888Z,0.83
2018-09-23T17:26:23.095Z,0.63
2018-09-23T17:28:51.245Z,0.70
2018-09-23T17:31:19.480Z,0.93
2018-09-23T17:33:48.232Z,1.00
2018-09-23T17:36:16.775Z,1.10
2018-09-23T17:38:45.097Z,0.80
2018-09-23T17:41:13.728Z,0.70
2018-09-23T17:43:42.323Z,1.20
2018-09-23T17:46:10.372Z,0.80
2018-09-23T17:48:38.403Z,0.73
2018-09-23T17:51:06.364Z,0.70
2018-09-23T17:53:34.500Z,0.77
2018-09-23T17:56:02.452Z,0.70
2018-09-23T17:58:30.639Z,0.90
2018-09-23T18:00:58.773Z,0.70
2018-09-23T18:03:26.951Z,1.30
2018-09-23T18:05:55.071Z,0.70
2018-09-23T18:08:23.252Z,0.80
2018-09-23T18:10:51.581Z,0.60
2018-09-23T18:13:20.205Z,1.17
2018-09-23T18:15:48.630Z,1.20
2018-09-23T18:18:17.056Z,0.80
2018-09-23T18:20:45.445Z,0.73
2018-09-23T18:23:14.475Z,0.90
2018-09-23T18:25:42.640Z,1.10
2018-09-23T18:28:10.602Z,1.10
2018-09-23T18:30:38.633Z,0.70
2018-09-23T18:33:06.748Z,1.10
2018-09-23T18:35:34.725Z,1.07
2018-09-23T18:38:02.742Z,1.30
2018-09-23T18:40:30.712Z,1.30
2018-09-23T18:42:59.059Z,1.00
2018-09-23T18:45:28.209Z,1.57
2018-09-23T18:47:57.571Z,1.10
2018-09-23T18:50:25.696Z,1.77
2018-09-23T18:52:59.104Z,1.90
2018-09-23T18:55:33.720Z,1.50
2018-09-23T18:58:01.760Z,2.37
2018-09-23T19:00:29.935Z,1.40
2018-09-23T19:02:58.318Z,1.00
2018-09-23T19:05:26.553Z,1.73
2018-09-23T19:07:55.622Z,1.67
2018-09-23T19:10:28.811Z,2.77
2018-09-23T19:13:02.277Z,2.50
2018-09-23T19:15:31.591Z,1.57
2018-09-23T19:18:00.005Z,1.77
2018-09-23T19:20:31.252Z,1.70
2018-09-23T19:23:04.635Z,2.90
2018-09-23T19:25:32.883Z,2.20
2018-09-23T19:28:01.078Z,3.23
2018-09-23T19:30:29.198Z,1.50
2018-09-23T19:32:57.439Z,1.70
2018-09-23T19:35:26.051Z,1.60
2018-09-23T19:37:54.633Z,3.10
2018-09-23T19:40:23.018Z,1.80
2018-09-23T19:42:51.589Z,2.57
2018-09-23T19:45:21.295Z,1.43
2018-09-23T19:47:50.118Z,2.70
2018-09-23T19:50:18.656Z,1.70
2018-09-23T19:52:47.350Z,1.37
2018-09-23T19:55:16.429Z,1.17
2018-09-23T19:57:45.132Z,1.73
2018-09-23T20:00:13.212Z,2.87
2018-09-23T20:02:41.436Z,1.83
2018-09-23T20:05:09.621Z,2.30
2018-09-23T20:07:37.763Z,1.63
2018-09-23T20:10:05.813Z,1.73
2018-09-23T20:12:33.863Z,1.80
2018-09-23T20:15:01.923Z,1.50
2018-09-23T20:17:30.050Z,1.50
2018-09-23T20:19:58.008Z,1.30
2018-09-23T20:22:26.027Z,2.10
2018-09-23T20:24:54.193Z,1.90
2018-09-23T20:27:22.398Z,1.50
2018-09-23T20:29:50.791Z,1.23
2018-09-23T20:32:19.209Z,1.90
2018-09-23T20:34:47.721Z,2.43
2018-09-23T20:37:16.260Z,2.53
2018-09-23T20:39:44.583Z,2.80
2018-09-23T20:42:14.179Z,1.30
2018-09-23T20:44:43.648Z,0.87
2018-09-23T20:47:11.877Z,1.10
2018-09-23T20:49:39.932Z,0.90
2018-09-23T20:52:08.074Z,2.13
2018-09-23T20:54:36.317Z,1.53
2018-09-23T20:57:04.556Z,2.20
2018-09-23T20:59:32.774Z,1.20
2018-09-23T21:02:00.950Z,3.83
2018-09-23T21:04:28.941Z,3.10
2018-09-23T21:06:57.203Z,1.47
2018-09-23T21:09:25.338Z,1.10
2018-09-23T21:11:53.419Z,1.30
2018-09-23T21:14:21.612Z,0.93
2018-09-23T21:16:49.843Z,0.60
2018-09-23T21:19:18.448Z,1.07
2018-09-23T21:21:46.686Z,1.10
2018-09-23T21:24:14.997Z,1.00
2018-09-23T21:26:43.411Z,1.00
2018-09-23T21:29:11.580Z,0.60
2018-09-23T21:31:39.661Z,0.80
2018-09-23T21:34:07.790Z,0.70
2018-09-23T21:36:35.899Z,0.87
2018-09-23T21:39:04.410Z,0.90
2018-09-23T21:41:32.554Z,0.90
2018-09-23T21:44:00.546Z,1.17
2018-09-23T21:46:28.578Z,1.20
2018-09-23T21:48:56.738Z,1.37
2018-09-23T21:51:24.827Z,1.00
2018-09-23T21:53:53.048Z,1.10
2018-09-23T21:56:21.403Z,1.20
2018-09-23T21:58:49.633Z,1.60
2018-09-23T22:01:17.979Z,2.43
2018-09-23T22:03:46.224Z,1.97
2018-09-23T22:06:14.405Z,2.07
2018-09-23T22:08:42.647Z,2.83
2018-09-23T22:11:10.971Z,1.80
2018-09-23T22:13:39.011Z,1.97
2018-09-23T22:16:07.001Z,2.80
2018-09-23T22:18:34.957Z,2.50
2018-09-23T22:21:02.923Z,1.73
2018-09-23T22:23:30.929Z,2.13
2018-09-23T22:25:58.897Z,1.60
2018-09-23T22:28:26.959Z,2.40
2018-09-23T22:30:55.095Z,2.90
2018-09-23T22:33:23.512Z,2.10
2018-09-23T22:35:51.688Z,2.23
2018-09-23T22:38:19.866Z,1.07
2018-09-23T22:40:48.085Z,2.87
2018-09-23T22:43:16.490Z,2.13
2018-09-23T22:45:45.055Z,1.77
2018-09-23T22:48:13.363Z,3.70
2018-09-23T22:50:41.426Z,3.17
2018-09-23T22:53:09.377Z,3.27
2018-09-23T22:55:37.525Z,1.83
2018-09-23T22:58:05.660Z,1.10
2018-09-23T23:00:33.672Z,2.40
2018-09-23T23:03:01.644Z,1.70
2018-09-23T23:05:29.746Z,1.80
2018-09-23T23:07:57.737Z,1.50
2018-09-23T23:10:25.785Z,0.60
2018-09-23T23:12:53.988Z,0.90
2018-09-23T23:15:22.232Z,1.20
2018-09-23T23:17:50.421Z,1.93
2018-09-23T23:20:18.528Z,2.33
2018-09-23T23:22:46.813Z,1.00
2018-09-23T23:25:15.057Z,0.97
2018-09-23T23:27:43.348Z,1.40
2018-09-23T23:30:11.453Z,1.40
2018-09-23T23:32:39.429Z,0.77
2018-09-23T23:35:07.569Z,0.83
2018-09-23T23:37:35.682Z,1.83
2018-09-23T23:40:04.002Z,1.97
2018-09-23T23:42:31.952Z,1.33
2018-09-23T23:44:59.908Z,1.73
2018-09-23T23:47:27.826Z,0.97
2018-09-23T23:49:55.927Z,1.40
2018-09-23T23:52:24.122Z,2.30
2018-09-23T23:54:52.298Z,2.50
2018-09-23T23:57:20.489Z,1.27
2018-09-23T23:59:48.716Z,1.20
